Time;durP1;ratioP1;P1;durP2;ratioP2;P2;SDS_P1;SDS_P2;PMS_P1;PMS_P2;Temp;Humidity;BMP_temperature;BMP_pressure;BME280_temperature;BME280_humidity;BME280_pressure;Samples;Min_cycle;Max_cycle;Signal;HPM_P1;HPM_P2
2022/06/25 00:01:03;;;;;;;10.07;3.83;;;;;;;18.77;nan;100099.75;4953498;29;20490;-71
2022/06/25 00:03:28;;;;;;;4.35;3.10;;;;;;;;;;4952516;29;20035;-70
2022/06/25 00:05:53;;;;;;;5.97;3.37;;;;;;;18.70;nan;100082.19;4953471;29;20389;-70
2022/06/25 00:08:19;;;;;;;5.03;3.30;;;;;;;18.63;nan;100089.75;4954270;28;20110;-71
2022/06/25 00:10:44;;;;;;;7.60;3.53;;;;;;;18.63;nan;100080.97;4957020;29;20051;-71
2022/06/25 00:13:10;;;;;;;4.53;3.60;;;;;;;18.62;nan;100096.16;4953958;29;20034;-70
2022/06/25 00:15:35;;;;;;;4.45;3.33;;;;;;;18.60;nan;100162.31;4939793;29;20504;-70
2022/06/25 00:18:01;;;;;;;6.03;3.63;;;;;;;18.55;nan;100093.03;4954975;28;20054;-70
2022/06/25 00:20:26;;;;;;;7.07;3.58;;;;;;;18.43;nan;100088.13;4956775;29;20074;-70
2022/06/25 00:22:51;;;;;;;5.53;3.45;;;;;;;18.36;nan;100039.69;4955160;29;20027;-70
2022/06/25 00:25:17;;;;;;;7.25;3.50;;;;;;;18.20;nan;100057.75;4956319;29;20042;-71
2022/06/25 00:27:42;;;;;;;8.45;3.72;;;;;;;18.25;nan;100087.00;4955435;29;20035;-70
2022/06/25 00:30:09;;;;;;;7.45;3.58;;;;;;;18.25;nan;100091.53;4955127;29;20047;-70
2022/06/25 00:32:35;;;;;;;9.55;3.60;;;;;;;18.25;nan;100086.22;4956897;29;20042;-71
2022/06/25 00:35:01;;;;;;;4.10;3.42;;;;;;;18.24;nan;100089.94;4956229;29;20122;-70
2022/06/25 00:37:26;;;;;;;4.88;3.40;;;;;;;18.20;nan;100083.59;4954992;29;20396;-70
2022/06/25 00:39:52;;;;;;;6.28;3.70;;;;;;;18.18;nan;100219.00;4955311;29;20043;-70
2022/06/25 00:42:18;;;;;;;4.43;3.60;;;;;;;18.13;nan;100051.16;4953050;29;20034;-70
2022/06/25 00:44:43;;;;;;;5.43;3.83;;;;;;;18.17;nan;100105.47;4955840;29;21215;-69
2022/06/25 00:47:10;;;;;;;9.13;3.30;;;;;;;;;;4954541;29;20113;-70
2022/06/25 00:49:36;;;;;;;6.82;3.80;;;;;;;18.06;nan;100086.94;4952734;29;20043;-70
2022/06/25 00:52:06;;;;;;;5.38;3.80;;;;;;;;;;4954692;29;20105;-70
2022/06/25 00:54:36;;;;;;;7.90;3.80;;;;;;;17.94;nan;100093.72;4956361;29;20058;-70
2022/06/25 00:57:04;;;;;;;7.57;3.90;;;;;;;17.91;nan;100089.75;4950478;29;20038;-70
2022/06/25 00:59:39;;;;;;;5.47;3.73;;;;;;;17.81;nan;100072.00;4952212;29;20079;-70
2022/06/25 01:02:04;;;;;;;5.15;3.80;;;;;;;;;;4952667;29;20272;-70
2022/06/25 01:04:29;;;;;;;4.95;3.72;;;;;;;;;;4956300;29;20149;-70
2022/06/25 01:06:55;;;;;;;7.03;4.10;;;;;;;17.69;nan;100052.88;4955740;29;20082;-70
2022/06/25 01:09:20;;;;;;;6.68;3.85;;;;;;;;;;4955778;28;20686;-69
2022/06/25 01:11:46;;;;;;;5.17;4.20;;;;;;;17.63;nan;100076.13;4953959;29;20126;-70
2022/06/25 01:14:12;;;;;;;8.48;3.90;;;;;;;17.60;nan;100073.22;4956447;29;20098;-70
2022/06/25 01:16:37;;;;;;;7.28;3.75;;;;;;;;;;4950792;29;20063;-70
2022/06/25 01:19:10;;;;;;;7.05;4.15;;;;;;;;;;4955493;28;20379;-70
2022/06/25 01:21:35;;;;;;;7.93;4.40;;;;;;;;;;4955702;28;20035;-70
2022/06/25 01:24:01;;;;;;;6.43;4.13;;;;;;;;;;4956059;29;20548;-70
2022/06/25 01:26:26;;;;;;;5.60;3.70;;;;;;;;;;4953736;29;20035;-70
2022/06/25 01:28:51;;;;;;;4.75;3.60;;;;;;;;;;4956032;29;20453;-70
2022/06/25 01:31:17;;;;;;;4.60;3.60;;;;;;;;;;4953976;29;20472;-70
2022/06/25 01:33:42;;;;;;;6.27;4.10;;;;;;;;;;4955619;29;20269;-70
2022/06/25 01:36:07;;;;;;;6.00;4.17;;;;;;;;;;4933838;29;20794;-69
2022/06/25 01:38:32;;;;;;;7.95;4.03;;;;;;;;;;4938305;29;20431;-70
2022/06/25 01:40:58;;;;;;;6.57;3.93;;;;;;;;;;4952320;29;20035;-70
2022/06/25 01:43:23;;;;;;;4.07;3.60;;;;;;;;;;4933988;29;20043;-71
2022/06/25 01:45:48;;;;;;;4.30;3.57;;;;;;;;;;4952556;29;20285;-72
2022/06/25 01:48:14;;;;;;;10.35;3.90;;;;;;;;;;4935079;29;20050;-72
2022/06/25 01:50:39;;;;;;;5.35;3.80;;;;;;;;;;4955129;29;20035;-69
2022/06/25 01:53:05;;;;;;;7.30;3.80;;;;;;;;;;4953379;29;20045;-71
2022/06/25 01:55:30;;;;;;;8.75;3.65;;;;;;;;;;4950569;29;20039;-69
2022/06/25 01:57:55;;;;;;;5.00;3.40;;;;;;;;;;4954155;29;20405;-69
2022/06/25 02:00:22;;;;;;;5.60;3.60;;;;;;;;;;4951350;29;20253;-69
2022/06/25 02:02:48;;;;;;;6.72;3.67;;;;;;;17.08;nan;100096.75;4954021;29;20269;-69
2022/06/25 02:05:14;;;;;;;3.95;3.50;;;;;;;;;;4951669;29;20114;-69
2022/06/25 02:07:40;;;;;;;6.78;3.50;;;;;;;;;;4954549;29;20473;-70
2022/06/25 02:10:06;;;;;;;5.10;3.85;;;;;;;;;;4953015;29;20046;-70
2022/06/25 02:12:31;;;;;;;6.03;3.40;;;;;;;;;;4951710;29;20039;-70
2022/06/25 02:14:56;;;;;;;6.33;3.23;;;;;;;;;;4953756;28;20042;-68
2022/06/25 02:17:21;;;;;;;5.72;3.42;;;;;;;;;;4950170;29;20818;-69
2022/06/25 02:19:47;;;;;;;3.80;3.27;;;;;;;;;;4954751;29;20078;-69
2022/06/25 02:22:14;;;;;;;5.70;3.83;;;;;;;;;;4953238;29;20460;-69
2022/06/25 02:24:43;;;;;;;6.43;3.33;;;;;;;;;;4952547;28;20047;-70
2022/06/25 02:27:08;;;;;;;7.47;3.50;;;;;;;;;;4949107;29;20081;-70
2022/06/25 02:29:34;;;;;;;3.88;3.47;;;;;;;;;;4954780;29;20747;-71
2022/06/25 02:31:59;;;;;;;4.20;3.28;;;;;;;;;;4954239;28;20082;-70
2022/06/25 02:34:25;;;;;;;4.32;3.53;;;;;;;;;;4954308;29;20027;-70
2022/06/25 02:36:50;;;;;;;14.13;4.20;;;;;;;;;;4953927;29;20525;-70
2022/06/25 02:39:16;;;;;;;7.63;4.05;;;;;;;;;;4954310;29;20294;-69
2022/06/25 02:41:41;;;;;;;4.90;3.30;;;;;;;;;;4954385;29;20035;-70
2022/06/25 02:44:07;;;;;;;7.05;3.63;;;;;;;;;;4951012;29;20031;-70
2022/06/25 02:46:32;;;;;;;6.63;3.57;;;;;;;;;;4953705;29;20050;-70
2022/06/25 02:48:57;;;;;;;6.53;3.73;;;;;;;;;;4954217;29;20277;-70
2022/06/25 02:51:22;;;;;;;5.60;3.60;;;;;;;;;;4954344;29;20304;-70
2022/06/25 02:53:48;;;;;;;7.00;3.70;;;;;;;;;;4954077;29;20683;-70
2022/06/25 02:58:58;;;;;;;7.50;3.63;;;;;;;;;;4952559;29;20285;-70
2022/06/25 03:01:24;;;;;;;6.32;3.35;;;;;;;;;;4951003;29;20036;-70
2022/06/25 03:03:49;;;;;;;8.43;3.72;;;;;;;;;;4953599;29;20437;-70
2022/06/25 03:06:15;;;;;;;9.43;3.53;;;;;;;;;;4954237;29;20121;-69
2022/06/25 03:08:40;;;;;;;6.93;3.35;;;;;;;;;;4936395;29;20118;-69
2022/06/25 03:11:06;;;;;;;8.20;3.93;;;;;;;;;;4954221;29;20466;-70
2022/06/25 03:13:34;;;;;;;10.50;3.60;;;;;;;;;;4952186;29;20265;-70
2022/06/25 03:15:59;;;;;;;4.47;3.60;;;;;;;;;;4951615;29;20122;-69
2022/06/25 03:18:25;;;;;;;4.15;3.75;;;;;;;;;;4949472;29;20139;-70
2022/06/25 03:20:50;;;;;;;4.35;3.67;;;;;;;;;;4935891;29;20086;-70
2022/06/25 03:23:16;;;;;;;5.87;3.60;;;;;;;;;;4952261;29;20045;-70
2022/06/25 03:25:41;;;;;;;4.00;3.30;;;;;;;;;;4953887;29;20493;-69
2022/06/25 03:28:06;;;;;;;7.28;3.95;;;;;;;;;;4951861;28;20855;-69
2022/06/25 03:30:32;;;;;;;4.75;3.47;;;;;;;;;;4953694;29;20050;-69
2022/06/25 03:32:57;;;;;;;5.23;4.03;;;;;;;;;;4953305;29;20047;-69
2022/06/25 03:35:22;;;;;;;8.27;3.57;;;;;;;;;;4953788;29;20062;-68
2022/06/25 03:37:48;;;;;;;3.90;3.50;;;;;;;16.20;nan;100123.91;4953330;29;20273;-70
2022/06/25 03:40:13;;;;;;;4.25;3.50;;;;;;;;;;4952576;29;20038;-69
2022/06/25 03:42:38;;;;;;;6.97;3.60;;;;;;;;;;4931846;29;20039;-70
2022/06/25 03:45:04;;;;;;;4.38;3.70;;;;;;;;;;4953145;29;20063;-70
2022/06/25 03:47:29;;;;;;;7.60;3.90;;;;;;;;;;4949457;29;20035;-70
2022/06/25 03:49:55;;;;;;;4.47;3.80;;;;;;;;;;4953393;29;20066;-70
2022/06/25 03:52:20;;;;;;;5.18;3.75;;;;;;;;;;4953095;29;20755;-69
2022/06/25 03:54:45;;;;;;;4.15;3.60;;;;;;;;;;4950303;29;20049;-70
2022/06/25 03:57:11;;;;;;;5.32;3.58;;;;;;;16.50;nan;100075.22;4953434;29;20035;-70
2022/06/25 03:59:36;;;;;;;6.45;3.67;;;;;;;;;;4953496;29;20042;-69
2022/06/25 04:02:02;;;;;;;7.97;3.93;;;;;;;;;;4951621;29;20035;-70
2022/06/25 04:04:27;;;;;;;6.60;3.50;;;;;;;;;;4950338;29;20746;-70
2022/06/25 04:06:52;;;;;;;6.77;3.63;;;;;;;;;;4951815;29;20118;-70
2022/06/25 04:09:18;;;;;;;7.83;3.70;;;;;;;;;;4951488;29;20031;-70
2022/06/25 04:11:43;;;;;;;6.60;3.85;;;;;;;16.94;nan;100205.59;4951080;29;20035;-70
2022/06/25 04:14:09;;;;;;;4.40;3.40;;;;;;;;;;4946960;29;20455;-70
2022/06/25 04:16:34;;;;;;;5.57;3.65;;;;;;;17.07;nan;100190.13;4953211;29;20043;-70
2022/06/25 04:18:59;;;;;;;5.53;3.50;;;;;;;;;;4953082;29;20432;-70
2022/06/25 04:21:25;;;;;;;9.00;3.90;;;;;;;;;;4952089;28;20027;-72
2022/06/25 04:23:50;;;;;;;10.23;3.75;;;;;;;;;;4948430;29;20265;-71
2022/06/25 04:26:16;;;;;;;3.78;3.22;;;;;;;;;;4949151;29;20086;-70
2022/06/25 04:31:25;;;;;;;5.85;3.50;;;;;;;;;;4951689;29;20431;-71
2022/06/25 04:33:51;;;;;;;5.17;3.43;;;;;;;;;;4952939;29;20039;-71
2022/06/25 04:36:16;;;;;;;6.97;3.53;;;;;;;;;;4952635;29;20409;-70
2022/06/25 04:38:42;;;;;;;17.85;4.82;;;;;;;;;;4951759;29;20515;-72
2022/06/25 04:41:07;;;;;;;6.67;3.40;;;;;;;;;;4951868;29;20062;-71
2022/06/25 04:43:32;;;;;;;6.83;3.73;;;;;;;;;;4950403;29;20035;-72
2022/06/25 04:45:58;;;;;;;8.73;4.20;;;;;;;18.20;nan;100132.38;4935763;29;20465;-71
2022/06/25 04:48:24;;;;;;;6.95;3.80;;;;;;;;;;4951544;29;20620;-72
2022/06/25 04:50:49;;;;;;;7.27;3.60;;;;;;;;;;4949983;29;20099;-72
2022/06/25 04:53:14;;;;;;;6.77;3.20;;;;;;;;;;4949210;29;20280;-72
2022/06/25 04:55:39;;;;;;;8.65;3.40;;;;;;;;;;4955594;28;20805;-71
2022/06/25 04:58:05;;;;;;;5.40;3.20;;;;;;;18.68;nan;100190.25;4939034;29;20122;-71
2022/06/25 05:00:30;;;;;;;6.63;3.42;;;;;;;18.76;nan;100138.16;4952912;29;20262;-71
2022/06/25 05:02:56;;;;;;;6.20;4.00;;;;;;;18.86;nan;100114.81;4952653;29;20525;-71
2022/06/25 05:05:21;;;;;;;5.18;3.35;;;;;;;18.96;nan;100137.91;4955965;29;20086;-71
2022/06/25 05:07:46;;;;;;;5.65;3.38;;;;;;;19.05;nan;100151.41;4953789;29;20027;-70
2022/06/25 05:10:12;;;;;;;6.82;3.30;;;;;;;19.16;nan;100149.41;4956849;28;20474;-71
2022/06/25 05:15:22;;;;;;;4.40;3.38;;;;;;;19.37;nan;100132.03;4952588;29;20031;-71
2022/06/25 05:17:48;;;;;;;5.22;3.20;;;;;;;19.44;nan;100169.84;4956107;29;20027;-71
2022/06/25 05:20:13;;;;;;;6.53;3.15;;;;;;;19.29;nan;100114.75;4953855;29;20036;-72
2022/06/25 05:22:38;;;;;;;10.57;3.75;;;;;;;19.54;nan;100142.19;4956053;29;20032;-72
2022/06/25 05:25:04;;;;;;;5.85;3.38;;;;;;;19.64;nan;100147.34;4953384;29;20046;-72
2022/06/25 05:27:30;;;;;;;6.78;3.80;;;;;;;19.73;nan;100155.53;4952955;29;20027;-70
2022/06/25 05:29:55;;;;;;;5.72;3.58;;;;;;;19.89;nan;100148.03;4952831;29;20413;-71
2022/06/25 05:32:21;;;;;;;6.65;3.17;;;;;;;20.01;nan;100151.03;4955361;29;20075;-72
2022/06/25 05:34:48;;;;;;;6.93;3.72;;;;;;;;;;4956309;28;20122;-72
2022/06/25 05:37:13;;;;;;;8.45;3.42;;;;;;;;;;4955526;29;20505;-72
2022/06/25 05:39:38;;;;;;;3.63;2.93;;;;;;;20.36;nan;100157.63;4951922;29;20134;-72
2022/06/25 05:42:05;;;;;;;5.90;3.13;;;;;;;20.45;nan;100163.09;4947970;29;20282;-70
2022/06/25 05:44:30;;;;;;;12.15;3.70;;;;;;;20.60;nan;100172.75;4952881;29;20482;-71
2022/06/25 05:46:56;;;;;;;5.63;3.10;;;;;;;20.57;nan;100141.25;4952664;29;20046;-71
2022/06/25 05:49:21;;;;;;;6.03;3.17;;;;;;;20.87;nan;100163.91;4951100;29;20034;-71
2022/06/25 05:51:46;;;;;;;5.53;3.50;;;;;;;21.00;nan;100159.63;4951665;29;20039;-71
2022/06/25 05:54:12;;;;;;;9.38;3.30;;;;;;;21.08;nan;100147.41;4952216;29;20043;-71
2022/06/25 05:56:37;;;;;;;3.85;2.67;;;;;;;21.33;nan;100173.63;4951442;29;20031;-71
2022/06/25 05:59:03;;;;;;;7.65;3.40;;;;;;;21.45;nan;100173.94;4953514;28;20043;-72
2022/06/25 06:01:28;;;;;;;8.68;3.00;;;;;;;21.63;nan;100164.13;4955448;29;20078;-73
2022/06/25 06:03:54;;;;;;;3.17;2.88;;;;;;;21.67;nan;100193.78;4951826;28;20043;-72
2022/06/25 06:06:19;;;;;;;5.95;3.10;;;;;;;21.75;nan;100168.16;4951646;28;20118;-71
2022/06/25 06:08:44;;;;;;;3.80;2.80;;;;;;;21.81;nan;100140.91;4953264;29;20035;-72
2022/06/25 06:11:10;;;;;;;5.30;2.85;;;;;;;;;;4934332;29;20118;-72
2022/06/25 06:13:35;;;;;;;3.17;2.60;;;;;;;21.98;nan;100163.53;4953204;29;20039;-71
2022/06/25 06:16:00;;;;;;;4.00;2.78;;;;;;;;;;4952172;29;20616;-70
2022/06/25 06:18:26;;;;;;;8.57;2.90;;;;;;;22.06;nan;100179.69;4951258;29;20031;-70
2022/06/25 06:20:51;;;;;;;5.43;3.00;;;;;;;22.05;nan;100151.31;4954418;29;20485;-70
2022/06/25 06:23:16;;;;;;;3.65;2.75;;;;;;;22.07;nan;100186.63;4951858;29;20118;-72
2022/06/25 06:25:42;;;;;;;4.30;3.28;;;;;;;22.08;nan;100171.34;4951919;29;20034;-72
2022/06/25 06:28:07;;;;;;;5.60;3.20;;;;;;;22.19;nan;100128.94;4949629;29;20086;-71
2022/06/25 06:30:33;;;;;;;3.92;3.10;;;;;;;22.34;nan;100186.78;4936629;29;20122;-72
2022/06/25 06:32:58;;;;;;;5.80;2.90;;;;;;;22.54;nan;100153.25;4954555;29;20031;-69
2022/06/25 06:35:23;;;;;;;7.43;2.58;;;;;;;22.62;nan;100161.31;4954672;29;20473;-69
2022/06/25 06:37:49;;;;;;;4.20;2.88;;;;;;;22.59;nan;100153.91;4953464;29;20474;-70
2022/06/25 06:40:15;;;;;;;3.55;3.25;;;;;;;22.85;nan;100153.19;4937149;29;20032;-67
2022/06/25 06:42:40;;;;;;;8.32;3.22;;;;;;;23.03;nan;100165.53;4952731;29;20039;-69
2022/06/25 06:45:06;;;;;;;7.28;2.88;;;;;;;23.14;nan;100172.19;4935978;29;20445;-69
2022/06/25 06:47:32;;;;;;;5.97;2.90;;;;;;;23.37;nan;100153.25;4936600;29;20050;-69
2022/06/25 06:49:57;;;;;;;5.38;3.08;;;;;;;23.50;nan;100170.31;4952599;29;20031;-69
2022/06/25 06:52:22;;;;;;;5.97;2.70;;;;;;;;;;4953956;29;20035;-69
2022/06/25 06:54:48;;;;;;;3.13;2.83;;;;;;;;;;4952769;29;20035;-69
2022/06/25 06:57:14;;;;;;;3.90;2.75;;;;;;;23.95;nan;100141.19;4953180;29;20105;-70
2022/06/25 06:59:40;;;;;;;5.88;3.15;;;;;;;24.03;nan;100212.19;4933393;29;20046;-69
2022/06/25 07:02:06;;;;;;;7.88;3.00;;;;;;;24.06;nan;100175.78;4951163;29;20045;-70
2022/06/25 07:04:32;;;;;;;11.85;3.03;;;;;;;24.18;nan;100157.06;4936538;29;20501;-68
2022/06/25 07:06:57;;;;;;;5.40;3.38;;;;;;;24.23;nan;100170.38;4956140;28;20047;-68
2022/06/25 07:09:23;;;;;;;6.50;3.08;;;;;;;24.43;nan;100214.63;4951325;29;20035;-67
2022/06/25 07:11:49;;;;;;;5.43;2.78;;;;;;;24.58;nan;100181.00;4931729;29;20031;-69
2022/06/25 07:14:14;;;;;;;8.32;2.53;;;;;;;24.77;nan;100172.50;4951507;29;20035;-67
2022/06/25 07:16:40;;;;;;;3.53;2.67;;;;;;;24.95;nan;100151.63;4947858;28;20038;-68
2022/06/25 07:19:05;;;;;;;5.93;2.50;;;;;;;25.09;nan;100111.75;4952559;29;20422;-69
2022/06/25 07:21:31;;;;;;;4.47;2.97;;;;;;;25.22;nan;100148.47;4952333;29;20031;-68
2022/06/25 07:23:57;;;;;;;4.82;2.75;;;;;;;25.39;nan;100168.31;4952051;29;20085;-69
2022/06/25 07:26:23;;;;;;;6.78;2.50;;;;;;;25.43;nan;100161.16;4952811;29;20115;-69
2022/06/25 07:28:51;;;;;;;5.18;2.80;;;;;;;25.46;nan;100163.94;4951257;29;20485;-67
2022/06/25 07:31:16;;;;;;;3.28;2.33;;;;;;;25.62;nan;100166.03;4932532;29;20047;-69
2022/06/25 07:33:42;;;;;;;4.28;2.70;;;;;;;25.67;nan;100182.03;4950192;29;20154;-69
2022/06/25 07:36:07;;;;;;;8.05;2.80;;;;;;;25.81;nan;100189.81;4951661;29;20046;-69
2022/06/25 07:38:33;;;;;;;8.77;2.60;;;;;;;25.83;nan;100179.47;4952125;29;20035;-70
2022/06/25 07:40:59;;;;;;;3.97;2.75;;;;;;;25.94;nan;100180.66;4948878;29;20430;-68
2022/06/25 07:43:27;;;;;;;6.82;2.67;;;;;;;26.09;nan;100149.53;4935765;29;20113;-70
2022/06/25 07:45:53;;;;;;;4.60;2.50;;;;;;;26.18;nan;100211.53;4943902;29;20516;-68
2022/06/25 07:48:18;;;;;;;5.13;2.70;;;;;;;26.26;nan;100179.00;4952267;29;20062;-68
2022/06/25 07:53:28;;;;;;;6.53;2.75;;;;;;;26.37;nan;100144.28;4952817;29;20031;-69
2022/06/25 07:55:53;;;;;;;4.45;2.40;;;;;;;26.51;nan;100171.72;4949438;28;20027;-69
2022/06/25 07:58:19;;;;;;;5.63;2.88;;;;;;;26.59;nan;100169.28;4951038;29;20441;-69
2022/06/25 08:00:44;;;;;;;3.95;2.47;;;;;;;26.63;nan;100216.88;4949839;29;20027;-68
2022/06/25 08:03:10;;;;;;;3.35;2.42;;;;;;;26.77;nan;100153.59;4953172;29;20485;-68
2022/06/25 08:05:35;;;;;;;10.57;3.63;;;;;;;26.78;nan;100166.78;4948409;29;20059;-69
2022/06/25 08:08:01;;;;;;;3.28;2.22;;;;;;;26.88;nan;100166.31;4950702;29;20035;-68
2022/06/25 08:10:26;;;;;;;5.55;2.30;;;;;;;26.94;nan;100172.28;4949716;29;20087;-69
2022/06/25 08:12:52;;;;;;;4.18;2.05;;;;;;;26.97;nan;100149.19;4953127;29;20069;-69
2022/06/25 08:15:19;;;;;;;2.78;2.00;;;;;;;27.19;nan;100140.59;4951046;29;20114;-68
2022/06/25 08:17:45;;;;;;;2.30;2.10;;;;;;;27.36;nan;100174.66;4930793;29;20067;-69
2022/06/25 08:20:11;;;;;;;2.17;1.98;;;;;;;27.43;nan;100155.94;4946541;29;20035;-69
2022/06/25 08:22:36;;;;;;;3.15;1.90;;;;;;;27.49;nan;100180.84;4951876;29;20028;-69
2022/06/25 08:25:03;;;;;;;2.97;2.08;;;;;;;27.46;nan;100127.41;4952617;29;20033;-69
2022/06/25 08:27:31;;;;;;;3.47;2.00;;;;;;;27.61;nan;100169.97;4952712;29;20055;-68
2022/06/25 08:29:57;;;;;;;2.78;1.80;;;;;;;27.58;nan;100146.28;4954970;28;20101;-68
2022/06/25 08:32:22;;;;;;;2.30;1.70;;;;;;;27.72;nan;100171.00;4955834;28;20485;-69
2022/06/25 08:34:48;;;;;;;2.30;1.80;;;;;;;27.84;nan;100150.47;4952529;29;20394;-69
2022/06/25 08:37:13;;;;;;;5.25;2.28;;;;;;;27.89;nan;100150.22;4939150;29;20504;-68
2022/06/25 08:39:39;;;;;;;4.07;2.00;;;;;;;28.05;nan;100150.22;4959211;28;20090;-69
2022/06/25 08:42:05;;;;;;;3.22;2.00;;;;;;;28.16;nan;100154.00;4956613;29;20576;-69
2022/06/25 08:44:31;;;;;;;2.47;2.05;;;;;;;28.18;nan;100167.94;4956527;29;20055;-69
2022/06/25 08:46:58;;;;;;;1.90;1.63;;;;;;;28.15;nan;100141.56;4956212;29;20489;-69
2022/06/25 08:49:24;;;;;;;2.08;1.83;;;;;;;28.20;nan;100157.56;4952439;29;20039;-70
2022/06/25 08:51:54;;;;;;;11.13;2.10;;;;;;;28.21;nan;100162.63;4955553;29;20039;-69
2022/06/25 08:54:20;;;;;;;4.22;2.00;;;;;;;28.28;nan;100153.09;4954115;29;20437;-69
2022/06/25 08:56:46;;;;;;;3.20;2.17;;;;;;;28.27;nan;100143.41;4956220;29;20035;-69
2022/06/25 08:59:12;;;;;;;5.95;1.70;;;;;;;28.37;nan;100159.91;4939630;29;20047;-69
2022/06/25 09:01:38;;;;;;;2.95;1.98;;;;;;;28.38;nan;100163.41;4955520;29;20034;-69
2022/06/25 09:04:04;;;;;;;4.75;1.95;;;;;;;28.47;nan;100155.91;4936352;29;20039;-67
2022/06/25 09:06:30;;;;;;;3.55;2.10;;;;;;;28.57;nan;100176.25;4955555;29;20031;-68
2022/06/25 09:09:13;;;;;;;3.15;1.92;;;;;;;28.74;nan;100180.50;4953173;29;20378;-68
2022/06/25 09:12:05;;;;;;;5.25;1.75;;;;;;;28.75;nan;100230.84;4951305;29;20405;-69
2022/06/25 09:14:32;;;;;;;3.05;2.10;;;;;;;28.83;nan;100198.16;4955087;28;20031;-68
2022/06/25 09:16:58;;;;;;;2.50;1.70;;;;;;;28.88;nan;100191.66;4951534;29;20028;-68
2022/06/25 09:19:30;;;;;;;2.80;1.85;;;;;;;28.93;nan;100179.78;4956210;29;20448;-68
2022/06/25 09:21:56;;;;;;;4.22;1.70;;;;;;;29.01;nan;100171.41;4950822;29;20036;-68
2022/06/25 09:24:22;;;;;;;3.85;1.48;;;;;;;29.13;nan;100189.50;4938480;29;20154;-68
2022/06/25 09:26:52;;;;;;;2.38;1.73;;;;;;;29.12;nan;100177.09;4954645;29;20027;-68
2022/06/25 09:29:17;;;;;;;2.83;1.77;;;;;;;29.27;nan;100186.31;4937296;29;20048;-69
2022/06/25 09:31:43;;;;;;;2.97;1.90;;;;;;;29.25;nan;100180.47;4936482;29;20439;-68
2022/06/25 09:34:09;;;;;;;4.80;1.80;;;;;;;29.27;nan;100189.81;4953836;28;20038;-68
2022/06/25 09:36:36;;;;;;;5.25;1.70;;;;;;;29.30;nan;100180.16;4935436;29;20190;-68
2022/06/25 09:39:02;;;;;;;6.70;1.70;;;;;;;29.31;nan;100162.78;4937180;29;20441;-67
2022/06/25 09:41:47;;;;;;;2.45;1.50;;;;;;;29.38;nan;100173.75;4935060;29;20027;-68
2022/06/25 09:44:18;;;;;;;2.53;1.80;;;;;;;29.46;nan;100163.81;4950051;29;20493;-68
2022/06/25 09:46:57;;;;;;;5.10;1.67;;;;;;;29.50;nan;100153.03;4953791;29;20039;-68
2022/06/25 09:49:24;;;;;;;3.55;1.83;;;;;;;29.73;nan;100175.59;4953558;29;20129;-68
2022/06/25 09:52:02;;;;;;;6.22;2.10;;;;;;;29.77;nan;100184.59;4954849;29;20084;-69
2022/06/25 09:54:28;;;;;;;7.13;1.90;;;;;;;29.72;nan;100151.53;4952233;29;20031;-69
2022/06/25 09:56:54;;;;;;;9.73;1.83;;;;;;;29.81;nan;100157.50;4936080;29;20509;-69
2022/06/25 09:59:23;;;;;;;3.47;1.70;;;;;;;29.96;nan;100162.03;4954796;29;20059;-70
2022/06/25 10:01:48;;;;;;;3.58;1.77;;;;;;;29.92;nan;100106.88;4949326;29;20655;-68
2022/06/25 10:04:15;;;;;;;1.77;1.60;;;;;;;30.01;nan;100136.53;4934267;29;20035;-69
2022/06/25 10:06:42;;;;;;;1.58;1.38;;;;;;;30.00;nan;100159.38;4951964;29;20043;-70
2022/06/25 10:09:09;;;;;;;6.43;2.35;;;;;;;29.99;nan;100145.03;4953055;29;20043;-69
2022/06/25 10:11:35;;;;;;;3.63;1.80;;;;;;;29.99;nan;100146.97;4934139;29;20074;-70
2022/06/25 10:14:02;;;;;;;3.50;1.60;;;;;;;29.99;nan;100092.66;4949770;29;20059;-70
2022/06/25 10:16:29;;;;;;;7.60;1.80;;;;;;;30.06;nan;100130.78;4953991;29;20034;-69
2022/06/25 10:18:55;;;;;;;2.65;1.80;;;;;;;29.99;nan;100117.88;4952883;29;20023;-70
2022/06/25 10:21:22;;;;;;;3.75;1.65;;;;;;;30.07;nan;100118.75;4947253;29;20126;-69
2022/06/25 10:24:04;;;;;;;3.95;1.85;;;;;;;30.14;nan;100113.44;4952732;29;20674;-69
2022/06/25 10:26:31;;;;;;;3.13;1.70;;;;;;;30.22;nan;100090.69;4950951;29;20036;-70
2022/06/25 10:28:56;;;;;;;3.22;2.05;;;;;;;30.35;nan;100098.66;4949859;29;20118;-68
2022/06/25 10:31:22;;;;;;;2.08;1.75;;;;;;;30.37;nan;100094.41;4954416;29;20116;-71
2022/06/25 10:34:04;;;;;;;2.42;1.65;;;;;;;30.40;nan;100149.97;4947399;29;20066;-70
2022/06/25 10:36:48;;;;;;;2.08;1.73;;;;;;;30.51;nan;100099.28;4950420;29;20421;-69
2022/06/25 10:39:22;;;;;;;5.90;1.80;;;;;;;30.56;nan;100104.38;4951053;29;20062;-70
2022/06/25 10:45:04;;;;;;;5.55;1.50;;;;;;;30.71;nan;100095.25;4944525;29;20039;-70
2022/06/25 10:47:39;;;;;;;5.78;1.92;;;;;;;30.79;nan;100090.69;4952170;29;20031;-70
2022/06/25 10:50:20;;;;;;;5.68;2.30;;;;;;;30.73;nan;100100.34;4934873;29;20035;-72
2022/06/25 10:53:08;;;;;;;4.43;1.77;;;;;;;30.72;nan;100094.13;4953548;28;20074;-69
2022/06/25 10:55:46;;;;;;;6.28;1.90;;;;;;;30.73;nan;100078.59;4950941;29;20039;-69
2022/06/25 10:58:18;;;;;;;5.57;2.03;;;;;;;30.82;nan;100062.78;4950533;28;20386;-69
2022/06/25 11:01:04;;;;;;;2.47;1.63;;;;;;;30.86;nan;100073.72;4939524;29;20122;-69
2022/06/25 11:03:32;;;;;;;5.85;2.00;;;;;;;30.88;nan;100065.97;4948693;29;20122;-68
2022/06/25 11:06:17;;;;;;;10.23;2.10;;;;;;;30.90;nan;100080.75;4951578;29;20479;-68
2022/06/25 11:08:43;;;;;;;3.28;1.88;;;;;;;31.00;nan;100035.81;4949391;29;20031;-67
2022/06/25 11:11:10;;;;;;;4.13;2.28;;;;;;;31.11;nan;100065.84;4951469;29;20027;-69
2022/06/25 11:13:35;;;;;;;7.03;2.35;;;;;;;31.09;nan;100049.91;4953845;29;20469;-69
2022/06/25 11:16:12;;;;;;;3.78;1.65;;;;;;;31.21;nan;100053.53;4950574;29;20039;-70
2022/06/25 11:18:45;;;;;;;4.05;1.90;;;;;;;31.31;nan;100074.59;4948590;29;20075;-69
2022/06/25 11:21:23;;;;;;;4.80;1.90;;;;;;;31.34;nan;100058.31;4950792;29;20024;-70
2022/06/25 11:23:48;;;;;;;7.78;2.15;;;;;;;31.36;nan;100049.78;4950035;29;20470;-69
2022/06/25 11:28:57;;;;;;;6.40;2.60;;;;;;;31.39;nan;100038.16;4953458;29;20038;-70
2022/06/25 11:31:24;;;;;;;4.13;2.20;;;;;;;31.45;nan;100055.72;4950047;29;20027;-70
2022/06/25 11:33:51;;;;;;;7.25;2.13;;;;;;;31.56;nan;100066.72;4946421;28;20032;-69
2022/06/25 11:36:18;;;;;;;5.88;2.10;;;;;;;31.54;nan;100026.25;4938310;29;20087;-71
2022/06/25 11:38:50;;;;;;;5.82;2.22;;;;;;;31.59;nan;100036.00;4956384;28;20090;-69
2022/06/25 11:41:20;;;;;;;4.43;1.63;;;;;;;31.67;nan;100083.13;4935524;29;20117;-69
2022/06/25 11:43:46;;;;;;;8.07;2.33;;;;;;;31.79;nan;100025.66;4948512;29;20062;-70
2022/06/25 11:46:14;;;;;;;3.55;1.88;;;;;;;31.88;nan;100071.63;4948054;29;20122;-69
2022/06/25 11:48:39;;;;;;;5.13;1.80;;;;;;;31.96;nan;99973.28;4950401;29;20063;-69
2022/06/25 11:51:05;;;;;;;5.07;2.58;;;;;;;32.05;nan;100010.31;4917893;29;20063;-70
2022/06/25 11:53:34;;;;;;;11.35;2.15;;;;;;;32.07;nan;100018.88;4953582;29;20114;-69
2022/06/25 11:56:01;;;;;;;6.45;2.53;;;;;;;32.06;nan;99979.16;4948323;29;20031;-69
2022/06/25 11:58:30;;;;;;;8.48;2.22;;;;;;;31.97;nan;100051.13;4936741;29;20409;-69
2022/06/25 12:01:05;;;;;;;4.03;1.90;;;;;;;32.00;nan;99984.97;4949780;29;20422;-69
2022/06/25 12:03:32;;;;;;;3.95;1.95;;;;;;;32.02;nan;100000.19;4951911;28;20117;-69
2022/06/25 12:05:59;;;;;;;5.93;1.80;;;;;;;32.12;nan;100005.66;4938731;29;20593;-68
2022/06/25 12:08:26;;;;;;;4.60;2.30;;;;;;;32.15;nan;100018.53;4947129;28;20405;-68
2022/06/25 12:10:53;;;;;;;5.43;2.30;;;;;;;32.16;nan;100013.88;4939742;29;20087;-68
2022/06/25 12:13:20;;;;;;;9.88;2.00;;;;;;;32.14;nan;100008.03;4956549;29;20035;-69
2022/06/25 12:15:46;;;;;;;5.28;1.90;;;;;;;32.14;nan;100024.38;4951785;29;20470;-69
2022/06/25 12:18:11;;;;;;;4.85;1.92;;;;;;;32.14;nan;99986.22;4956954;29;20401;-68
2022/06/25 12:20:54;;;;;;;3.90;1.77;;;;;;;32.11;nan;100009.56;4938765;29;20031;-68
2022/06/25 12:23:19;;;;;;;3.25;1.83;;;;;;;32.08;nan;100012.25;4957181;29;20064;-68
2022/06/25 12:25:46;;;;;;;6.97;1.92;;;;;;;32.09;nan;100022.00;4954066;29;20055;-69
2022/06/25 12:28:12;;;;;;;5.38;2.17;;;;;;;32.07;nan;100041.44;4954013;29;20046;-69
2022/06/25 12:30:37;;;;;;;3.67;1.95;;;;;;;31.98;nan;100008.31;4955413;29;20039;-68
2022/06/25 12:33:09;;;;;;;8.30;2.00;;;;;;;32.07;nan;100016.94;4955680;28;20038;-68
2022/06/25 12:35:40;;;;;;;5.45;2.22;;;;;;;32.08;nan;100010.31;4948199;28;20035;-68
2022/06/25 12:38:07;;;;;;;5.78;2.03;;;;;;;32.10;nan;100039.91;4955668;29;20035;-68
2022/06/25 12:40:43;;;;;;;5.43;2.53;;;;;;;32.07;nan;100040.66;4953472;29;20035;-69
2022/06/25 12:43:10;;;;;;;6.20;2.35;;;;;;;32.09;nan;100006.44;4936608;29;20417;-69